Port Arthur, TX

2:19 AM CST on December 03, 2016 (GMT -0600)
Green Ave, Port Arthur | | Change Station

Elev 30 ft 29.92 °N, 93.92 °W | Updated 2 seconds ago

Overcast
Overcast
56.8 °F
Feels Like 56.8 °F
N
7.2
Wind Variable Wind from SE
Gusts 7.4 mph

Today
High -- | Low -- °F
--% Chance of Precip.
Yesterday
High -- | Low -- °F
Precip. -- in
Pressure 29.98 in
Visibility 10.0 miles
Clouds Overcast 2200 ft
Dew Point 41 °F
Humidity 55%
Rainfall 0.05 in
Snow Depth Not available.
6:55 AM 5:15 PM
Waxing Crescent, 13% visible
METAR KBPT 030753Z AUTO 09021G29KT 10SM OVC022 16/07 A2998 RMK AO2 PK WND 09029/0744 SLP151 T01560072
Pressure 29.98 in
Visibility 10.0 miles
Clouds Overcast 2200 ft
Dew Point 41 °F
Humidity 55%
Rainfall 0.05 in
Snow Depth Not available.
6:55 AM 5:15 PM
Waxing Crescent, 13% visible
METAR KBPT 030753Z AUTO 09021G29KT 10SM OVC022 16/07 A2998 RMK AO2 PK WND 09029/0744 SLP151 T01560072

10-Day Weather Forecast

Almanac

Astronomy

Dec. 03, 2016 Rise Set
Actual Time
Civil Twilight
Nautical Twilight
Astronomical Twilight
Moon
Length of Visible Light
Length of Day
Tomorrow will be .
, % of the Moon is Illuminated

Today's Extremes

State Highs State Lows

Community

WunderPhotos

Upload Photos

1,955,432 photos uploaded!

WunderBlog® & News

Nearby

Air Quality

  Air Quality AQ Index Pollutant
Not available.

Snow Depth

Station Depth Elevation

Earthquake Activity

City Distance Mag. Time & Date
Minimum magnitude displayed is 2.5.

Coastal Water Temperatures

Place Temperature

Stations

Nearby Weather Stations

Station Location Temp. Windchill Dew Point Humidity Wind Precip. Elev Updated Type
                   

Watches & Warnings

Coastal Flood Advisory
Issued: 3:06 PM CST Dec. 2, 2016 – National Weather Service

... Coastal Flood Advisory remains in effect until 6 am CST
Saturday...

* coastal flooding... tide levels are expected to reach near 3.5
feet mean lower low water.

* Timing... late this evening and overnight.

* Impacts... minor flooding with water in low spots on area roads
near Sabine Pass... Cameron... Hackberry.

Precautionary/preparedness actions...

A coastal Flood Advisory indicates that onshore winds and tides
will combine to generate flooding of low areas along the shore.



Rua


Wind Advisory
Issued: 3:11 PM CST Dec. 2, 2016 – National Weather Service

... Wind Advisory in effect until 6 am CST Saturday...

The National Weather Service in Lake Charles has issued a Wind
Advisory... which is in effect until 6 am CST Saturday.

* Timing... tonight

* winds... east 20 to 25 mph with gusts to near 30 mph.

* Impacts... difficulty driving high profile vehicles... especially
on north-south bridges. Trash cans and loose lawn objects will
be blown around.

Precautionary/preparedness actions...

A Wind Advisory means that winds of 20 mph are expected. Winds
this strong can make driving difficult... especially for high
profile vehicles. Use extra caution.



Rua